map of KMBT home
KMBT - Airport
Location
City:  Murfreesboro, Tennessee, United States
Name:Murfreesboro Municipal Airport
ICAO:KMBT
FAA LID:MBT

Details
Type:Airport (Airfield)
Use:Public/Civil
Latitude:3552'43"N (35.878658)
Longitude:8622'39"W (-86.377470)
Datum:WGS 1984
Elevation:614 ft (187 m)
Variation:4.10W (WMM2015 magnetic declination)
-0.08 annual change
Runways:1
Longest:4753 × 100 ft (1449 × 30.5 m), paved

Time
Time Zone:UTC-6 (DST-5)
Local Time:

Weather
METAR:KMBT 142335Z AUTO 35006KT 4SM BR BKN006 OVC009 03/02 A3017 RMK A01

Related Locations
Nearby:
Farthest:YAUG: 11221 mi / 18059 km
Augusta [Augusta Airport], WA, AU

Find:

   beyond  
but within

Other Information
Maps:
NOTAMs:
Links:
Sources:

  
  • flag of United States
  • flag of Tennessee
  

Sectional Chart

Flight Planning
at skyvector.com

Satellite Image

Google Maps Satellite view

 

Copyright © 2004-2018 Karl L. Swartz. All rights reserved.
The Great Circle Mapper name and logo are trademarks of the Great Circle Mapper.
All other trademarks mentioned herein belong to their respective owners.
Please see credits for attibutions and further copyright information.

  Follow gcmap on Facebook Follow gcmap on Twitter Follow gcmap on Google+ GCmap on LinkedIn

hCard Microformat

Geo Microformat